KPDX/PDX METAR and TAF weather

Enter ICAO airport designator
Station Type Date Time Source
KPDX METAR 2022/06/29 23:53 UTC NOAA

KPDX 292353Z 31008KT 10SM FEW030 FEW250 24/12 A3011 RMK AO2 SLP195 T02440122 10250 20183 58012 $


Station Type Date Time Source
KPDX Decoded METAR 2022/06/29 23:53 UTC NOAA

PORTLAND INTERNATIONAL AIRPORT, OR, United States (KPDX) 45-35N 122-36W 7M
Jun 29, 2022 - 07:53 PM EDT / 2022.06.29 2353 UTC
Wind: from the NW (310 degrees) at 9 MPH (8 KT):0
Visibility: 10 mile(s):0
Sky conditions: mostly clear
Temperature: 75.9 F (24.4 C)
Dew Point: 54.0 F (12.2 C)
Relative Humidity: 46%
Pressure (altimeter): 30.11 in. Hg (1019 hPa)
Pressure tendency: 0.04 inches (1.2 hPa) lower than three hours ago
ob: KPDX 292353Z 31008KT 10SM FEW030 FEW250 24/12 A3011 RMK AO2 SLP195 T02440122 10250 20183 58012
cycle: 0

Station Type Date Time Source
KPDX TAF 2022/06/29 21:45 UTC NOAA

TAF
AMD KPDX 292042Z 2921/3018 31007KT P6SM FEW035 FEW250
FM301200 33004KT P6SM SCT015 BKN035
FM301700 33004KT P6SM FEW015 SCT040

Example: see airport list